createdAt,value
2022-10-07T00:01:01.890Z,96540.25
2022-10-07T00:03:29.912Z,96538.34
2022-10-07T00:06:05.492Z,96538.34
2022-10-07T00:08:34.121Z,96537.53
2022-10-07T00:11:06.204Z,96541.09
2022-10-07T00:13:38.904Z,96541.22
2022-10-07T00:16:10.335Z,96533.47
2022-10-07T00:18:38.881Z,96531.94
2022-10-07T00:21:08.441Z,96525.91
2022-10-07T00:23:36.416Z,96526.00
2022-10-07T00:26:06.132Z,96528.63
2022-10-07T00:28:37.293Z,96524.34
2022-10-07T00:31:06.849Z,96525.44
2022-10-07T00:33:38.248Z,96515.91
2022-10-07T00:36:08.358Z,96513.75
2022-10-07T00:38:36.391Z,96513.06
2022-10-07T00:41:04.544Z,96509.59
2022-10-07T00:43:33.182Z,96507.94
2022-10-07T00:46:06.668Z,96497.34
2022-10-07T00:48:39.201Z,96501.63
2022-10-07T00:51:09.328Z,96502.56
2022-10-07T00:53:40.477Z,96492.25
2022-10-07T00:56:09.197Z,96489.63
2022-10-07T00:58:39.042Z,96488.78
2022-10-07T01:01:07.004Z,96482.00
2022-10-07T01:03:36.039Z,96478.56
2022-10-07T01:06:05.748Z,96481.16
2022-10-07T01:08:33.861Z,96479.41
2022-10-07T01:11:14.837Z,96484.75
2022-10-07T01:13:49.354Z,96479.53
2022-10-07T01:16:24.264Z,96475.38
2022-10-07T01:18:58.859Z,96469.28
2022-10-07T01:21:40.618Z,96466.94
2022-10-07T01:24:26.458Z,96474.66
2022-10-07T01:27:02.041Z,96470.38
2022-10-07T01:29:35.760Z,96459.09
2022-10-07T01:32:09.277Z,96467.06
2022-10-07T01:34:38.483Z,96450.41
2022-10-07T01:37:09.491Z,96459.09
2022-10-07T01:39:42.258Z,96448.72
2022-10-07T01:42:12.247Z,96453.25
2022-10-07T01:44:41.186Z,96444.72
2022-10-07T01:47:08.881Z,96451.03
2022-10-07T01:49:37.002Z,96445.09
2022-10-07T01:52:27.859Z,96442.31
2022-10-07T01:55:19.658Z,96443.31
2022-10-07T01:57:57.399Z,96447.97
2022-10-07T02:00:25.127Z,96436.66
2022-10-07T02:03:11.539Z,96435.81
2022-10-07T02:05:50.289Z,96435.00
2022-10-07T02:08:27.069Z,96432.50
2022-10-07T02:11:05.163Z,96433.22
2022-10-07T02:13:38.687Z,96438.44
2022-10-07T02:16:16.220Z,96428.34
2022-10-07T02:18:48.395Z,96430.97
2022-10-07T02:21:19.705Z,96427.78
2022-10-07T02:23:49.228Z,96418.03
2022-10-07T02:26:21.939Z,96429.19
2022-10-07T02:28:53.619Z,96418.81
2022-10-07T02:31:24.961Z,96417.19
2022-10-07T02:33:54.225Z,96420.63
2022-10-07T02:36:29.533Z,96413.72
2022-10-07T02:39:00.242Z,96420.03
2022-10-07T02:41:35.712Z,96413.41
2022-10-07T02:44:14.257Z,96405.53
2022-10-07T02:46:48.185Z,96413.53
2022-10-07T02:49:18.892Z,96405.81
2022-10-07T02:51:49.625Z,96406.06
2022-10-07T02:54:21.456Z,96401.06
2022-10-07T02:56:51.245Z,96402.03
2022-10-07T02:59:22.207Z,96397.03
2022-10-07T03:01:54.389Z,96398.94
2022-10-07T03:04:23.309Z,96401.31
2022-10-07T03:06:51.008Z,96401.56
2022-10-07T03:09:18.591Z,96390.25
2022-10-07T03:11:46.254Z,96389.56
2022-10-07T03:14:13.823Z,96397.41
2022-10-07T03:16:42.896Z,96399.44
2022-10-07T03:19:10.818Z,96392.78
2022-10-07T03:21:40.512Z,96388.50
2022-10-07T03:24:08.078Z,96391.34
2022-10-07T03:26:36.371Z,96390.78
2022-10-07T03:29:05.301Z,96386.47
2022-10-07T03:31:33.054Z,96381.25
2022-10-07T03:34:02.066Z,96383.06
2022-10-07T03:36:29.782Z,96381.50
2022-10-07T03:38:58.455Z,96378.91
2022-10-07T03:41:26.114Z,96377.22
2022-10-07T03:43:59.021Z,96372.50
2022-10-07T03:46:26.745Z,96378.22
2022-10-07T03:48:54.437Z,96371.44
2022-10-07T03:51:23.823Z,96378.13
2022-10-07T03:53:57.340Z,96369.56
2022-10-07T03:56:24.993Z,96378.94
2022-10-07T03:58:53.179Z,96370.97
2022-10-07T04:01:20.850Z,96371.13
2022-10-07T04:03:48.536Z,96372.06
2022-10-07T04:06:17.878Z,96369.81
2022-10-07T04:08:46.860Z,96367.56
2022-10-07T04:11:14.436Z,96360.53
2022-10-07T04:13:42.025Z,96359.34
2022-10-07T04:16:10.607Z,96360.88
2022-10-07T04:18:38.441Z,96363.94
2022-10-07T04:21:06.312Z,96358.84
2022-10-07T04:23:34.215Z,96362.06
2022-10-07T04:26:07.536Z,96360.78
2022-10-07T04:28:35.226Z,96352.59
2022-10-07T04:31:05.341Z,96356.75
2022-10-07T04:33:33.042Z,96344.16
2022-10-07T04:36:05.537Z,96338.22
2022-10-07T04:38:33.490Z,96337.63
2022-10-07T04:41:06.812Z,96333.00
2022-10-07T04:43:34.988Z,96331.47
2022-10-07T04:46:04.615Z,96329.69
2022-10-07T04:48:33.242Z,96328.16
2022-10-07T04:51:04.508Z,96333.25
2022-10-07T04:53:32.420Z,96329.91
2022-10-07T04:56:00.439Z,96330.97
2022-10-07T04:58:30.311Z,96326.19
2022-10-07T05:00:59.303Z,96334.41
2022-10-07T05:03:29.362Z,96332.91
2022-10-07T05:06:05.554Z,96330.22
2022-10-07T05:08:33.804Z,96329.56
2022-10-07T05:11:03.218Z,96336.00
2022-10-07T05:13:32.405Z,96335.09
2022-10-07T05:16:01.728Z,96338.09
2022-10-07T05:18:30.569Z,96335.16
2022-10-07T05:20:58.445Z,96335.00
2022-10-07T05:23:28.874Z,96340.09
2022-10-07T05:26:01.658Z,96334.25
2022-10-07T05:28:29.441Z,96340.31
2022-10-07T05:31:07.411Z,96332.25
2022-10-07T05:33:35.763Z,96333.78
2022-10-07T05:36:04.465Z,96328.09
2022-10-07T05:38:32.289Z,96337.94
2022-10-07T05:41:01.197Z,96335.44
2022-10-07T05:43:29.758Z,96330.91
2022-10-07T05:46:03.976Z,96329.09
2022-10-07T05:48:39.004Z,96329.69
2022-10-07T05:51:08.162Z,96330.78
2022-10-07T05:53:36.487Z,96327.13
2022-10-07T05:56:07.195Z,96328.91
2022-10-07T05:58:36.192Z,96325.34
2022-10-07T06:01:11.391Z,96322.03
2022-10-07T06:03:43.036Z,96332.81
2022-10-07T06:06:11.382Z,96333.47
2022-10-07T06:08:38.993Z,96333.56
2022-10-07T06:11:25.427Z,96333.78
2022-10-07T06:13:55.294Z,96332.69
2022-10-07T06:16:24.007Z,96329.19
2022-10-07T06:18:53.931Z,96337.78
2022-10-07T06:21:23.732Z,96339.78
2022-10-07T06:23:52.808Z,96337.88
2022-10-07T06:26:21.123Z,96336.69
2022-10-07T06:28:49.526Z,96344.56
2022-10-07T06:31:22.415Z,96345.19
2022-10-07T06:33:50.571Z,96340.09
2022-10-07T06:36:19.572Z,96331.19
2022-10-07T06:38:48.281Z,96329.66
2022-10-07T06:41:16.698Z,96331.75
2022-10-07T06:43:44.614Z,96332.16
2022-10-07T06:46:17.315Z,96332.34
2022-10-07T06:48:46.100Z,96342.19
2022-10-07T06:51:15.233Z,96342.53
2022-10-07T06:53:44.834Z,96341.28
2022-10-07T06:56:14.126Z,96342.75
2022-10-07T06:58:42.946Z,96334.63
2022-10-07T07:01:10.894Z,96341.69
2022-10-07T07:03:38.510Z,96333.38
2022-10-07T07:06:09.361Z,96331.84
2022-10-07T07:08:38.666Z,96333.69
2022-10-07T07:11:30.973Z,96335.00
2022-10-07T07:13:59.466Z,96334.66
2022-10-07T07:16:27.546Z,96339.03
2022-10-07T07:18:56.156Z,96332.31
2022-10-07T07:21:24.655Z,96338.84
2022-10-07T07:23:52.718Z,96333.81
2022-10-07T07:26:21.706Z,96338.56
2022-10-07T07:28:52.816Z,96328.41
2022-10-07T07:31:21.251Z,96339.34
2022-10-07T07:33:52.451Z,96335.63
2022-10-07T07:36:22.754Z,96334.34
2022-10-07T07:38:52.337Z,96333.88
2022-10-07T07:41:24.027Z,96326.78
2022-10-07T07:43:52.351Z,96330.63
2022-10-07T07:46:21.079Z,96331.50
2022-10-07T07:48:49.589Z,96331.03
2022-10-07T07:51:18.977Z,96327.13
2022-10-07T07:53:49.588Z,96325.56
2022-10-07T07:56:18.773Z,96326.84
2022-10-07T07:58:48.404Z,96321.59
2022-10-07T08:01:18.668Z,96321.31
2022-10-07T08:03:47.959Z,96325.78
2022-10-07T08:06:17.866Z,96317.63
2022-10-07T08:08:45.472Z,96310.75
2022-10-07T08:11:15.744Z,96316.31
2022-10-07T08:13:44.095Z,96313.47
2022-10-07T08:16:14.573Z,96312.06
2022-10-07T08:18:43.317Z,96317.63
2022-10-07T08:21:11.481Z,96320.19
2022-10-07T08:23:40.258Z,96325.88
2022-10-07T08:26:10.063Z,96320.19
2022-10-07T08:28:40.193Z,96318.19
2022-10-07T08:31:10.113Z,96304.47
2022-10-07T08:33:41.058Z,96311.25
2022-10-07T08:36:12.623Z,96306.78
2022-10-07T08:38:41.540Z,96307.22
2022-10-07T08:41:24.108Z,96304.50
2022-10-07T08:43:52.883Z,96293.19
2022-10-07T08:46:27.150Z,96299.94
2022-10-07T08:48:59.919Z,96293.69
2022-10-07T08:51:34.224Z,96295.09
2022-10-07T08:54:01.904Z,96290.41
2022-10-07T08:56:30.494Z,96296.09
2022-10-07T08:59:11.443Z,96287.69
2022-10-07T09:01:52.326Z,96290.16
2022-10-07T09:04:34.099Z,96283.84
2022-10-07T09:07:05.887Z,96283.34
2022-10-07T09:09:37.339Z,96276.06
2022-10-07T09:12:08.599Z,96275.91
2022-10-07T09:14:39.132Z,96268.69
2022-10-07T09:17:14.067Z,96276.50
2022-10-07T09:19:47.915Z,96271.22
2022-10-07T09:22:21.323Z,96274.22
2022-10-07T09:24:50.474Z,96269.94
2022-10-07T09:27:22.750Z,96273.22
2022-10-07T09:29:51.253Z,96265.03
2022-10-07T09:32:21.139Z,96253.88
2022-10-07T09:34:50.103Z,96257.19
2022-10-07T09:37:20.755Z,96254.88
2022-10-07T09:39:50.945Z,96254.09
2022-10-07T09:42:38.724Z,96253.47
2022-10-07T09:45:20.377Z,96255.00
2022-10-07T09:47:52.534Z,96258.47
2022-10-07T09:50:38.065Z,96254.06
2022-10-07T09:53:07.596Z,96265.47
2022-10-07T09:55:41.759Z,96253.06
2022-10-07T09:58:19.220Z,96251.69
2022-10-07T10:00:48.093Z,96256.19
2022-10-07T10:03:16.373Z,96254.13
2022-10-07T10:05:57.417Z,96254.66
2022-10-07T10:08:28.713Z,96248.53
2022-10-07T10:10:58.174Z,96242.59
2022-10-07T10:13:28.678Z,96239.16
2022-10-07T10:15:56.578Z,96243.50
2022-10-07T10:18:34.045Z,96237.22
2022-10-07T10:21:25.246Z,96231.34
2022-10-07T10:23:54.726Z,96231.66
2022-10-07T10:26:44.353Z,96228.50
2022-10-07T10:29:21.992Z,96232.91
2022-10-07T10:32:21.878Z,96227.91
2022-10-07T10:34:58.027Z,96219.94
2022-10-07T10:37:38.118Z,96221.59
2022-10-07T10:40:19.082Z,96212.53
2022-10-07T10:42:55.632Z,96212.78
2022-10-07T10:45:35.899Z,96215.28
2022-10-07T10:48:25.847Z,96205.34
2022-10-07T10:50:59.387Z,96206.88
2022-10-07T10:53:39.478Z,96206.03
2022-10-07T10:56:23.834Z,96202.19
2022-10-07T10:59:06.969Z,96200.50
2022-10-07T11:01:38.419Z,96187.13
2022-10-07T11:04:22.620Z,96190.88
2022-10-07T11:06:56.984Z,96185.22
2022-10-07T11:09:34.624Z,96185.34
2022-10-07T11:12:06.236Z,96183.94
2022-10-07T11:14:47.151Z,96176.63
2022-10-07T11:17:16.677Z,96170.69
2022-10-07T11:19:50.640Z,96175.13
2022-10-07T11:22:33.240Z,96164.34
2022-10-07T11:25:08.231Z,96158.41
2022-10-07T11:27:36.290Z,96154.56
2022-10-07T11:30:08.872Z,96160.19
2022-10-07T11:32:43.153Z,96149.84
2022-10-07T11:35:24.322Z,96155.63
2022-10-07T11:37:59.733Z,96140.59
2022-10-07T11:40:32.286Z,96146.53
2022-10-07T11:43:07.148Z,96138.91
2022-10-07T11:45:42.271Z,96132.16
2022-10-07T11:48:13.890Z,96134.47
2022-10-07T11:50:47.814Z,96130.34
2022-10-07T11:53:20.516Z,96118.56
2022-10-07T11:55:56.843Z,96110.97
2022-10-07T11:58:27.103Z,96121.34
2022-10-07T12:01:32.323Z,96109.22
2022-10-07T12:04:25.586Z,96102.53
2022-10-07T12:07:29.348Z,96098.66
2022-10-07T12:10:18.140Z,96091.97
2022-10-07T12:12:52.320Z,96092.34
2022-10-07T12:15:29.812Z,96090.94
2022-10-07T12:18:31.090Z,96089.34
2022-10-07T12:21:04.565Z,96077.03
2022-10-07T12:24:09.793Z,96072.63
2022-10-07T12:26:48.123Z,96070.09
2022-10-07T12:29:34.835Z,96066.88
2022-10-07T12:32:02.872Z,96064.31
2022-10-07T12:34:41.198Z,96057.72
2022-10-07T12:37:42.081Z,96063.94
2022-10-07T12:40:17.474Z,96052.09
2022-10-07T12:42:52.898Z,96053.50
2022-10-07T12:45:23.353Z,96054.50
2022-10-07T12:47:56.876Z,96051.19
2022-10-07T12:50:27.625Z,96042.66
2022-10-07T12:52:58.785Z,96047.06
2022-10-07T12:55:31.846Z,96041.97
2022-10-07T12:58:21.267Z,96048.03
2022-10-07T13:01:05.907Z,96041.66
2022-10-07T13:03:54.811Z,96038.78
2022-10-07T13:06:52.244Z,96042.13
2022-10-07T13:09:44.694Z,96033.53
2022-10-07T13:12:33.992Z,96029.09
2022-10-07T13:15:16.761Z,96034.19
2022-10-07T13:17:50.713Z,96033.91
2022-10-07T13:20:33.794Z,96028.78
2022-10-07T13:23:07.840Z,96028.78
2022-10-07T13:25:36.488Z,96026.53
2022-10-07T13:28:05.563Z,96020.16
2022-10-07T13:30:40.231Z,96015.97
2022-10-07T13:33:25.142Z,96006.28
2022-10-07T13:36:06.191Z,96007.03
2022-10-07T13:38:35.929Z,96003.13
2022-10-07T13:41:08.123Z,96000.44
2022-10-07T13:43:37.851Z,96005.53
2022-10-07T13:46:10.247Z,95995.16
2022-10-07T13:48:45.365Z,95999.59
2022-10-07T13:51:21.811Z,95994.16
2022-10-07T13:53:55.788Z,95991.81
2022-10-07T13:56:26.852Z,95995.81
2022-10-07T13:58:56.884Z,95992.53
2022-10-07T14:01:27.624Z,95988.56
2022-10-07T14:04:12.574Z,95991.84
2022-10-07T14:06:52.262Z,95995.94
2022-10-07T14:09:26.422Z,95996.59
2022-10-07T14:11:57.557Z,95989.53
2022-10-07T14:14:28.285Z,95986.91
2022-10-07T14:17:00.150Z,95982.16
2022-10-07T14:19:33.710Z,95981.84
2022-10-07T14:22:03.633Z,95976.78
2022-10-07T14:24:33.011Z,95972.50
2022-10-07T14:27:00.632Z,95973.69
2022-10-07T14:29:37.737Z,95974.50
2022-10-07T14:32:30.643Z,95971.53
2022-10-07T14:35:20.455Z,95970.53
2022-10-07T14:37:49.346Z,95965.28
2022-10-07T14:40:24.157Z,95971.38
2022-10-07T14:42:54.119Z,95968.41
2022-10-07T14:45:23.615Z,95966.91
2022-10-07T14:47:51.320Z,95967.56
2022-10-07T14:50:20.317Z,95956.88
2022-10-07T14:52:52.016Z,95950.59
2022-10-07T14:55:25.439Z,95955.50
2022-10-07T14:57:53.236Z,95950.06
2022-10-07T15:00:23.464Z,95944.13
2022-10-07T15:02:52.979Z,95954.50
2022-10-07T15:05:20.741Z,95946.25
2022-10-07T15:07:49.917Z,95953.84
2022-10-07T15:10:20.037Z,95946.72
2022-10-07T15:12:49.386Z,95940.28
2022-10-07T15:15:17.930Z,95938.31
2022-10-07T15:17:45.613Z,95935.66
2022-10-07T15:20:15.805Z,95929.22
2022-10-07T15:22:44.478Z,95933.50
2022-10-07T15:25:15.213Z,95936.91
2022-10-07T15:27:43.199Z,95934.94
2022-10-07T15:30:13.928Z,95930.31
2022-10-07T15:32:42.241Z,95926.34
2022-10-07T15:35:10.232Z,95927.09
2022-10-07T15:37:37.837Z,95921.66
2022-10-07T15:40:07.461Z,95923.25
2022-10-07T15:42:35.092Z,95921.56
2022-10-07T15:45:02.717Z,95918.91
2022-10-07T15:47:33.267Z,95922.84
2022-10-07T15:50:00.894Z,95922.47
2022-10-07T15:52:28.655Z,95931.97
2022-10-07T15:54:56.542Z,95922.53
2022-10-07T15:57:24.915Z,95924.97
2022-10-07T15:59:54.582Z,95923.94
2022-10-07T16:02:22.485Z,95932.44
2022-10-07T16:04:52.181Z,95918.63
2022-10-07T16:07:19.816Z,95920.72
2022-10-07T16:09:47.449Z,95918.31
2022-10-07T16:12:15.377Z,95916.66
2022-10-07T16:14:42.942Z,95912.84
2022-10-07T16:17:10.569Z,95920.50
2022-10-07T16:19:38.315Z,95919.47
2022-10-07T16:22:07.274Z,95916.38
2022-10-07T16:24:35.597Z,95919.09
2022-10-07T16:27:03.659Z,95915.63
2022-10-07T16:29:48.691Z,95918.72
2022-10-07T16:32:16.464Z,95916.25
2022-10-07T16:34:44.808Z,95925.91
2022-10-07T16:37:14.842Z,95926.81
2022-10-07T16:39:42.836Z,95926.16
2022-10-07T16:42:10.485Z,95929.69
2022-10-07T16:44:38.771Z,95921.13
2022-10-07T16:47:06.451Z,95925.56
2022-10-07T16:49:36.334Z,95918.88
2022-10-07T16:52:04.426Z,95924.75
2022-10-07T16:54:35.214Z,95922.78
2022-10-07T16:57:02.834Z,95918.22
2022-10-07T16:59:30.833Z,95918.59
2022-10-07T17:02:02.210Z,95920.59
2022-10-07T17:04:29.934Z,95922.84
2022-10-07T17:06:58.198Z,95916.25
2022-10-07T17:09:26.139Z,95912.97
2022-10-07T17:11:56.774Z,95915.75
2022-10-07T17:14:24.951Z,95919.09
2022-10-07T17:16:54.171Z,95922.94
2022-10-07T17:19:24.957Z,95921.66
2022-10-07T17:21:54.064Z,95921.94
2022-10-07T17:24:23.011Z,95917.97
2022-10-07T17:26:52.413Z,95923.50
2022-10-07T17:29:23.290Z,95923.00
2022-10-07T17:31:51.204Z,95925.22
2022-10-07T17:34:20.687Z,95916.63
2022-10-07T17:36:48.683Z,95921.22
2022-10-07T17:39:17.153Z,95922.13
2022-10-07T17:41:44.935Z,95922.16
2022-10-07T17:44:13.739Z,95922.75
2022-10-07T17:46:43.163Z,95920.72
2022-10-07T17:49:14.166Z,95924.06
2022-10-07T17:51:42.926Z,95924.50
2022-10-07T17:54:12.347Z,95917.38
2022-10-07T17:56:40.193Z,95922.00
2022-10-07T17:59:07.974Z,95925.16
2022-10-07T18:01:36.464Z,95916.13
2022-10-07T18:04:07.152Z,95919.34
2022-10-07T18:06:36.926Z,95911.03
2022-10-07T18:09:06.735Z,95912.22
2022-10-07T18:11:52.761Z,95919.22
2022-10-07T18:14:38.735Z,95915.69
2022-10-07T18:17:07.783Z,95915.69
2022-10-07T18:19:36.796Z,95914.38
2022-10-07T18:22:04.495Z,95911.84
2022-10-07T18:24:32.263Z,95909.72
2022-10-07T18:27:01.901Z,95915.53
2022-10-07T18:29:31.079Z,95916.56
2022-10-07T18:31:58.949Z,95916.31
2022-10-07T18:34:26.626Z,95912.63
2022-10-07T18:36:57.165Z,95913.53
2022-10-07T18:39:27.158Z,95911.91
2022-10-07T18:41:54.803Z,95908.97
2022-10-07T18:44:22.538Z,95910.69
2022-10-07T18:46:50.260Z,95909.13
2022-10-07T18:49:17.983Z,95906.34
2022-10-07T18:51:47.090Z,95902.06
2022-10-07T18:54:16.280Z,95899.50
2022-10-07T18:56:43.898Z,95895.16
2022-10-07T18:59:13.110Z,95899.09
2022-10-07T19:01:41.660Z,95907.41
2022-10-07T19:04:10.849Z,95912.63
2022-10-07T19:06:43.758Z,95903.34
2022-10-07T19:09:15.132Z,95908.41
2022-10-07T19:11:44.159Z,95903.06
2022-10-07T19:14:11.506Z,95904.75
2022-10-07T19:16:40.560Z,95900.63
2022-10-07T19:19:11.949Z,95907.91
2022-10-07T19:21:39.808Z,95902.28
2022-10-07T19:24:07.832Z,95901.31
2022-10-07T19:26:37.517Z,95906.69
2022-10-07T19:29:08.971Z,95903.34
2022-10-07T19:31:40.258Z,95910.25
2022-10-07T19:34:09.913Z,95898.53
2022-10-07T19:36:40.101Z,95899.25
2022-10-07T19:39:08.039Z,95901.56
2022-10-07T19:41:37.431Z,95903.50
2022-10-07T19:44:06.547Z,95904.06
2022-10-07T19:46:34.726Z,95903.38
2022-10-07T19:49:03.808Z,95906.41
2022-10-07T19:51:32.994Z,95899.38
2022-10-07T19:54:03.030Z,95903.38
2022-10-07T19:56:32.678Z,95899.38
2022-10-07T19:59:02.349Z,95899.81
2022-10-07T20:01:32.921Z,95905.88
2022-10-07T20:04:04.092Z,95902.75
2022-10-07T20:06:32.431Z,95892.22
2022-10-07T20:09:00.248Z,95898.75
2022-10-07T20:11:28.674Z,95890.69
2022-10-07T20:13:56.231Z,95894.84
2022-10-07T20:16:25.950Z,95893.31
2022-10-07T20:19:00.943Z,95893.75
2022-10-07T20:21:30.321Z,95884.78
2022-10-07T20:23:58.323Z,95892.75
2022-10-07T20:26:27.746Z,95898.13
2022-10-07T20:28:57.442Z,95896.50
2022-10-07T20:31:27.178Z,95890.53
2022-10-07T20:33:58.738Z,95893.44
2022-10-07T20:36:28.805Z,95892.38
2022-10-07T20:39:14.954Z,95894.22
2022-10-07T20:42:00.228Z,95896.00
2022-10-07T20:44:28.068Z,95884.84
2022-10-07T20:46:59.575Z,95884.16
2022-10-07T20:49:31.035Z,95883.06
2022-10-07T20:52:03.279Z,95877.41
2022-10-07T20:54:33.061Z,95876.31
2022-10-07T20:57:01.516Z,95879.06
2022-10-07T20:59:30.978Z,95876.16
2022-10-07T21:01:59.493Z,95871.19
2022-10-07T21:04:29.146Z,95867.59
2022-10-07T21:06:57.191Z,95871.13
2022-10-07T21:09:25.786Z,95867.03
2022-10-07T21:11:54.266Z,95868.13
2022-10-07T21:14:22.614Z,95866.72
2022-10-07T21:16:52.046Z,95865.06
2022-10-07T21:19:19.746Z,95854.03
2022-10-07T21:21:50.887Z,95856.91
2022-10-07T21:24:18.686Z,95862.31
2022-10-07T21:26:47.002Z,95859.03
2022-10-07T21:29:15.215Z,95853.53
2022-10-07T21:31:45.736Z,95851.44
2022-10-07T21:34:13.377Z,95844.31
2022-10-07T21:36:50.355Z,95853.13
2022-10-07T21:39:21.945Z,95852.16
2022-10-07T21:41:50.218Z,95859.44
2022-10-07T21:44:18.487Z,95851.56
2022-10-07T21:46:46.717Z,95849.66
2022-10-07T21:49:14.922Z,95850.94
2022-10-07T21:51:42.970Z,95851.91
2022-10-07T21:54:14.023Z,95857.69
2022-10-07T21:56:46.997Z,95853.41
2022-10-07T21:59:15.195Z,95852.16
2022-10-07T22:01:43.410Z,95847.88
2022-10-07T22:04:17.178Z,95850.22
2022-10-07T22:07:02.951Z,95847.03
2022-10-07T22:09:31.248Z,95846.66
2022-10-07T22:12:00.212Z,95847.09
2022-10-07T22:14:28.625Z,95841.84
2022-10-07T22:16:56.294Z,95839.66
2022-10-07T22:19:23.910Z,95836.78
2022-10-07T22:21:51.645Z,95831.84
2022-10-07T22:24:19.368Z,95829.91
2022-10-07T22:26:50.973Z,95830.88
2022-10-07T22:29:21.646Z,95829.78
2022-10-07T22:31:49.635Z,95833.06
2022-10-07T22:34:31.260Z,95835.41
2022-10-07T22:36:59.004Z,95835.56
2022-10-07T22:39:26.866Z,95833.25
2022-10-07T22:41:54.459Z,95825.41
2022-10-07T22:44:23.464Z,95829.53
2022-10-07T22:46:51.120Z,95824.41
2022-10-07T22:49:18.707Z,95829.53
2022-10-07T22:51:46.386Z,95822.19
2022-10-07T22:54:15.157Z,95826.06
2022-10-07T22:56:42.780Z,95822.59
2022-10-07T22:59:10.999Z,95827.56
2022-10-07T23:01:40.224Z,95822.63
2022-10-07T23:04:07.771Z,95814.75
2022-10-07T23:06:36.584Z,95822.47
2022-10-07T23:09:05.468Z,95817.22
2022-10-07T23:11:33.171Z,95813.25
2022-10-07T23:14:00.918Z,95804.84
2022-10-07T23:16:31.188Z,95806.22
2022-10-07T23:19:00.113Z,95808.97
2022-10-07T23:21:29.364Z,95811.31
2022-10-07T23:24:04.371Z,95812.41
2022-10-07T23:26:34.902Z,95811.72
2022-10-07T23:29:03.164Z,95803.91
2022-10-07T23:31:32.858Z,95806.19
2022-10-07T23:34:03.239Z,95800.00
2022-10-07T23:36:31.602Z,95801.69
2022-10-07T23:39:00.586Z,95792.63
2022-10-07T23:41:30.429Z,95799.22
2022-10-07T23:44:00.411Z,95795.22
2022-10-07T23:46:28.938Z,95797.16
2022-10-07T23:48:57.048Z,95794.81
2022-10-07T23:51:28.170Z,95794.00
2022-10-07T23:53:57.297Z,95790.56
2022-10-07T23:56:24.923Z,95790.97
2022-10-07T23:58:52.861Z,95786.97
